Time;durP1;ratioP1;P1;durP2;ratioP2;P2;SDS_P1;SDS_P2;PMS_P1;PMS_P2;Temp;Humidity;BMP_temperature;BMP_pressure;BME280_temperature;BME280_humidity;BME280_pressure;Samples;Min_cycle;Max_cycle;Signal;HPM_P1;HPM_P2
2021/03/24 00:02:05;;;;;;;6.75;3.37;;;;;;;-2.19;68.60;100413.76;1791687;77;21183;-76
2021/03/24 00:04:34;;;;;;;8.55;3.80;;;;;;;-2.20;68.57;100415.26;1798430;79;21587;-74
2021/03/24 00:07:04;;;;;;;8.55;4.05;;;;;;;-2.24;68.54;100421.31;1788047;79;21390;-76
2021/03/24 00:09:33;;;;;;;8.05;4.00;;;;;;;-2.25;68.53;100430.16;1787814;79;21518;-74
2021/03/24 00:12:01;;;;;;;9.38;3.98;;;;;;;-2.28;68.52;100423.97;1768064;78;21214;-74
2021/03/24 00:14:29;;;;;;;6.50;3.60;;;;;;;-2.28;68.48;100428.39;1784528;79;21222;-73
2021/03/24 00:16:57;;;;;;;7.17;3.62;;;;;;;-2.31;68.48;100424.31;1788378;79;21170;-74
2021/03/24 00:19:25;;;;;;;6.42;3.10;;;;;;;-2.31;68.46;100424.81;1795771;77;21357;-75
2021/03/24 00:21:55;;;;;;;7.20;3.75;;;;;;;-2.34;68.40;100427.28;1802289;79;21167;-74
2021/03/24 00:24:23;;;;;;;7.58;3.62;;;;;;;-2.36;68.40;100435.81;1798476;79;21202;-75
2021/03/24 00:26:51;;;;;;;9.20;4.78;;;;;;;-2.40;68.34;100434.55;1789006;77;21222;-75
2021/03/24 00:29:20;;;;;;;7.78;3.90;;;;;;;-2.44;68.34;100433.25;1795579;79;21182;-74
2021/03/24 00:31:48;;;;;;;7.10;3.52;;;;;;;-2.46;68.30;100433.94;1788330;79;21528;-75
2021/03/24 00:34:16;;;;;;;9.80;3.80;;;;;;;-2.48;68.34;100431.98;1791061;79;21175;-75
2021/03/24 00:36:44;;;;;;;6.90;3.15;;;;;;;-2.51;68.27;100421.36;1796518;79;21128;-75
2021/03/24 00:39:17;;;;;;;6.90;3.35;;;;;;;-2.53;68.26;100429.05;1799912;79;21158;-74
2021/03/24 00:41:42;;;;;;;7.03;3.30;;;;;;;-2.52;68.32;100439.86;1797101;79;21202;-75
2021/03/24 00:44:12;;;;;;;6.12;2.77;;;;;;;-2.54;68.33;100440.52;1797755;79;21958;-74
2021/03/24 00:46:39;;;;;;;6.92;2.95;;;;;;;-2.54;68.32;100443.13;1799765;77;21211;-74
2021/03/24 00:49:08;;;;;;;6.25;3.05;;;;;;;-2.54;68.32;100445.74;1798510;77;22197;-75
2021/03/24 00:51:37;;;;;;;6.80;3.00;;;;;;;-2.54;68.33;100445.25;1790631;79;21190;-75
2021/03/24 00:54:05;;;;;;;7.10;3.58;;;;;;;-2.53;68.33;100448.67;1801085;79;21187;-74
2021/03/24 00:56:34;;;;;;;8.23;3.20;;;;;;;-2.53;68.33;100448.67;1790804;79;21276;-76
2021/03/24 00:59:02;;;;;;;6.17;2.52;;;;;;;-2.53;68.38;100452.12;1798888;79;21226;-79
2021/03/24 01:01:32;;;;;;;7.40;2.80;;;;;;;-2.53;68.34;100448.20;1809133;77;21168;-76
2021/03/24 01:04:00;;;;;;;7.15;3.40;;;;;;;-2.52;68.29;100445.09;1797855;79;21678;-75
2021/03/24 01:06:28;;;;;;;7.92;2.92;;;;;;;-2.53;68.31;100461.28;1794351;79;21071;-76
2021/03/24 01:08:56;;;;;;;7.15;3.12;;;;;;;-2.50;68.27;100457.48;1792397;79;21375;-76
2021/03/24 01:11:25;;;;;;;6.42;3.15;;;;;;;-2.48;68.26;100465.97;1789566;79;21325;-74
2021/03/24 01:13:55;;;;;;;6.22;2.60;;;;;;;-2.45;68.15;100468.24;1797462;79;21281;-74
2021/03/24 01:16:23;;;;;;;5.97;2.98;;;;;;;-2.42;68.08;100478.36;1794635;79;21277;-75
2021/03/24 01:18:51;;;;;;;6.50;3.17;;;;;;;-2.43;68.04;100469.70;1791080;79;21218;-74
2021/03/24 01:21:19;;;;;;;6.80;3.27;;;;;;;-2.44;68.04;100468.55;1801852;79;21309;-75
2021/03/24 01:23:48;;;;;;;7.53;3.33;;;;;;;-2.43;68.10;100477.55;1791115;79;21226;-74
2021/03/24 01:26:18;;;;;;;6.75;3.05;;;;;;;-2.44;68.05;100474.59;1793599;79;21531;-75
2021/03/24 01:28:46;;;;;;;5.50;2.98;;;;;;;-2.42;68.05;100474.44;1800902;79;21117;-73
2021/03/24 01:31:15;;;;;;;4.78;2.30;;;;;;;-2.40;68.04;100483.75;1793294;79;21112;-76
2021/03/24 01:33:42;;;;;;;5.05;2.40;;;;;;;-2.40;67.98;100490.28;1786705;79;21363;-77
2021/03/24 01:36:11;;;;;;;6.03;2.60;;;;;;;-2.40;67.98;100490.28;1795974;79;21203;-77
2021/03/24 01:38:40;;;;;;;7.08;2.83;;;;;;;-2.40;67.96;100483.75;1787677;79;21182;-74
2021/03/24 01:41:08;;;;;;;5.50;2.37;;;;;;;-2.37;67.99;100489.09;1790882;79;21202;-74
2021/03/24 01:43:37;;;;;;;4.35;2.12;;;;;;;-2.35;67.78;100481.91;1798066;77;21210;-73
2021/03/24 01:46:35;;;;;;;4.37;2.27;;;;;;;-2.30;67.70;100488.06;1793269;79;21281;-75
2021/03/24 01:49:08;;;;;;;7.17;2.30;;;;;;;-2.28;67.31;100488.06;1793093;79;21171;-74
2021/03/24 01:51:41;;;;;;;5.45;2.30;;;;;;;-2.19;67.34;100488.83;1792930;79;21175;-73
2021/03/24 01:54:12;;;;;;;6.03;2.15;;;;;;;-2.16;67.09;100482.75;1774319;79;21151;-73
2021/03/24 01:56:42;;;;;;;5.97;2.60;;;;;;;-2.10;66.97;100490.89;1777292;79;21186;-72
2021/03/24 01:59:09;;;;;;;5.50;2.40;;;;;;;-2.10;66.97;100490.89;1787459;79;21563;-72
2021/03/24 02:01:37;;;;;;;4.22;2.42;;;;;;;-2.09;66.92;100489.40;1798996;79;21718;-73
2021/03/24 02:04:06;;;;;;;4.20;2.20;;;;;;;-2.06;66.73;100487.73;1801113;79;21166;-72
2021/03/24 02:06:51;;;;;;;4.20;2.15;;;;;;;-2.01;66.42;100493.74;1790102;79;21230;-74
2021/03/24 02:09:39;;;;;;;5.45;2.40;;;;;;;-2.01;66.42;100493.74;1802283;79;21199;-74
2021/03/24 02:12:12;;;;;;;4.12;1.80;;;;;;;-1.99;66.43;100493.89;1776555;80;21334;-74
2021/03/24 02:15:09;;;;;;;4.58;2.15;;;;;;;-1.97;66.29;100495.85;1790743;79;21186;-74
2021/03/24 02:17:42;;;;;;;5.87;2.30;;;;;;;-1.97;66.29;100495.85;1705174;83;21210;-74
2021/03/24 02:20:35;;;;;;;;;;;;;;;-1.88;65.96;100504.43;1646320;85;21656;-74
2021/03/24 02:23:33;;;;;;;4.37;1.95;;;;;;;-1.84;65.77;100504.89;1669697;84;20632;-74
2021/03/24 02:26:35;;;;;;;4.50;1.95;;;;;;;-1.80;65.46;100507.49;1668582;84;21242;-74
2021/03/24 02:29:04;;;;;;;;;;;;;;;-1.76;65.36;100506.95;1672555;84;21254;-74
2021/03/24 02:31:33;;;;;;;4.17;2.25;;;;;;;-1.71;65.24;100508.55;1669251;84;20505;-74
2021/03/24 02:34:06;;;;;;;4.67;2.00;;;;;;;-1.66;65.08;100508.01;1671522;84;21088;-74
2021/03/24 02:36:33;;;;;;;3.58;2.02;;;;;;;-1.63;64.97;100509.46;1670797;84;21156;-74
2021/03/24 02:39:06;;;;;;;3.85;2.00;;;;;;;-1.60;64.83;100513.84;1669964;84;22153;-76
2021/03/24 02:41:34;;;;;;;4.10;2.25;;;;;;;-1.54;64.73;100522.80;1664290;84;28681;-75
2021/03/24 02:44:03;;;;;;;3.58;1.98;;;;;;;-1.50;64.52;100519.64;1638573;85;21188;-74
2021/03/24 02:46:32;;;;;;;4.08;2.27;;;;;;;-1.46;64.28;100518.78;1667444;85;21163;-75
2021/03/24 02:49:08;;;;;;;5.37;2.75;;;;;;;-1.45;64.24;100518.62;1650572;85;21251;-73
2021/03/24 02:51:39;;;;;;;4.25;2.33;;;;;;;-1.38;64.08;100512.16;1668467;84;21145;-74
2021/03/24 02:54:14;;;;;;;4.92;2.30;;;;;;;-1.35;64.11;100516.20;1669481;84;21662;-75
2021/03/24 02:56:42;;;;;;;4.25;2.20;;;;;;;-1.34;64.11;100525.22;1660952;84;21224;-75
2021/03/24 02:59:10;;;;;;;6.40;2.72;;;;;;;-1.33;64.07;100514.23;1647343;85;21164;-75
2021/03/24 03:01:52;;;;;;;4.00;2.40;;;;;;;-1.34;64.02;100515.23;1666866;85;21116;-75
2021/03/24 03:04:27;;;;;;;6.92;2.52;;;;;;;-1.34;64.02;100520.48;1640621;85;21242;-75
2021/03/24 03:06:56;;;;;;;4.20;2.15;;;;;;;-1.34;63.97;100523.09;1642657;85;21160;-74
2021/03/24 03:09:38;;;;;;;4.95;2.55;;;;;;;-1.33;64.07;100529.45;1671317;84;21707;-75
2021/03/24 03:12:15;;;;;;;3.77;2.10;;;;;;;-1.32;63.93;100510.11;1640025;85;21312;-75
2021/03/24 03:14:58;;;;;;;4.75;2.50;;;;;;;-1.30;63.91;100521.23;1665304;84;21631;-76
2021/03/24 03:17:41;;;;;;;5.25;2.25;;;;;;;-1.28;63.89;100520.56;1669823;84;21673;-74
2021/03/24 03:20:18;;;;;;;3.85;2.12;;;;;;;-1.27;63.81;100521.38;1639589;85;21243;-74
2021/03/24 03:22:59;;;;;;;5.22;1.87;;;;;;;-1.29;63.77;100525.47;1668943;85;21167;-73
2021/03/24 03:25:33;;;;;;;5.00;2.15;;;;;;;-1.31;63.94;100522.23;1641954;85;24843;-74
2021/03/24 03:28:04;;;;;;;3.90;2.02;;;;;;;-1.30;64.02;100536.95;1664344;85;21252;-73
2021/03/24 03:30:33;;;;;;;4.70;2.12;;;;;;;-1.28;64.01;100541.53;1643918;84;22443;-73
2021/03/24 03:33:04;;;;;;;4.95;2.40;;;;;;;-1.28;63.98;100542.84;1639967;85;21208;-74
2021/03/24 03:35:33;;;;;;;4.45;2.10;;;;;;;-1.27;64.04;100535.29;1624610;85;21337;-73
2021/03/24 03:38:02;;;;;;;4.85;2.40;;;;;;;-1.26;64.01;100538.22;1667137;85;21105;-74
2021/03/24 03:40:33;;;;;;;5.25;2.70;;;;;;;-1.24;63.91;100544.11;1669332;84;21239;-74
2021/03/24 03:43:04;;;;;;;8.95;2.55;;;;;;;-1.25;63.96;100546.42;1670850;84;21406;-76
2021/03/24 03:45:33;;;;;;;4.00;1.65;;;;;;;-1.24;63.85;100549.34;1664438;85;21144;-74
2021/03/24 03:48:01;;;;;;;5.55;2.70;;;;;;;-1.23;63.92;100544.41;1634748;85;21106;-75
2021/03/24 03:50:29;;;;;;;4.67;2.90;;;;;;;-1.22;63.86;100555.70;1643176;85;21252;-75
2021/03/24 03:53:23;;;;;;;4.90;2.70;;;;;;;-1.23;63.88;100552.27;1639953;85;21312;-74
2021/03/24 03:56:11;;;;;;;5.28;2.60;;;;;;;-1.23;63.85;100560.13;1612794;87;21307;-74
2021/03/24 03:58:51;;;;;;;5.60;2.67;;;;;;;-1.23;63.93;100565.38;1667338;84;21136;-74
2021/03/24 04:01:32;;;;;;;5.37;3.17;;;;;;;-1.17;64.00;100563.05;1837163;77;22629;-74
2021/03/24 04:04:11;;;;;;;4.78;2.80;;;;;;;-1.20;64.00;100565.52;1804530;78;21133;-75
2021/03/24 04:06:51;;;;;;;6.00;2.60;;;;;;;-1.17;63.95;100573.53;1856071;75;21369;-74
2021/03/24 04:09:19;;;;;;;4.28;2.55;;;;;;;-1.20;64.04;100566.33;1835637;77;21296;-74
2021/03/24 04:11:53;;;;;;;5.85;3.20;;;;;;;-1.19;64.11;100571.88;1773034;77;21156;-75
2021/03/24 04:14:24;;;;;;;4.85;2.87;;;;;;;-1.17;64.08;100569.59;1843927;77;21290;-75
2021/03/24 04:16:52;;;;;;;4.90;2.75;;;;;;;-1.15;64.13;100570.21;1839606;75;21158;-74
2021/03/24 04:19:28;;;;;;;5.45;2.90;;;;;;;-1.14;63.96;100569.23;1818459;78;21376;-75
2021/03/24 04:22:00;;;;;;;5.12;2.77;;;;;;;-1.12;63.95;100571.16;1808099;78;21171;-74
2021/03/24 04:24:36;;;;;;;5.30;3.02;;;;;;;-1.12;63.88;100583.77;1841612;77;21053;-76
2021/03/24 04:27:06;;;;;;;6.22;3.08;;;;;;;-1.10;63.90;100584.41;1830391;77;21030;-75
2021/03/24 04:29:44;;;;;;;4.75;2.70;;;;;;;-1.08;63.86;100585.56;1824361;77;21180;-75
2021/03/24 04:32:12;;;;;;;5.28;2.87;;;;;;;-1.05;63.68;100581.27;1818299;77;21492;-75
2021/03/24 04:34:41;;;;;;;6.00;2.80;;;;;;;-1.02;63.53;100581.72;1820344;77;21560;-73
2021/03/24 04:37:38;;;;;;;4.83;2.77;;;;;;;-1.02;63.60;100584.81;1853374;75;21073;-74
2021/03/24 04:40:30;;;;;;;4.90;2.50;;;;;;;-0.98;63.50;100579.05;1821630;77;21145;-75
2021/03/24 04:43:08;;;;;;;4.20;2.67;;;;;;;-0.97;63.25;100589.84;1824846;77;21112;-75
2021/03/24 04:45:54;;;;;;;7.08;2.85;;;;;;;-0.96;63.38;100607.20;1805865;77;21277;-75
2021/03/24 04:48:33;;;;;;;4.53;2.65;;;;;;;-0.93;63.33;100602.09;1840725;77;21160;-75
2021/03/24 04:51:13;;;;;;;5.62;2.85;;;;;;;-0.86;63.37;100607.42;1787364;77;21097;-75
2021/03/24 04:53:52;;;;;;;7.65;3.70;;;;;;;-0.80;63.00;100594.41;1831213;76;21124;-75
2021/03/24 04:56:21;;;;;;;4.17;2.55;;;;;;;-0.74;63.31;100599.44;1835809;77;21124;-74
2021/03/24 04:58:54;;;;;;;4.42;2.92;;;;;;;-0.69;62.94;100611.98;1827835;76;21379;-75
2021/03/24 05:01:45;;;;;;;6.35;3.15;;;;;;;-0.70;62.76;100611.18;1825959;77;21186;-74
2021/03/24 05:04:30;;;;;;;8.05;3.70;;;;;;;-0.75;63.13;100615.67;1823284;76;21155;-74
2021/03/24 05:07:07;;;;;;;6.70;3.83;;;;;;;-0.82;63.44;100613.46;1825044;78;21266;-75
2021/03/24 05:09:35;;;;;;;5.80;3.40;;;;;;;-0.86;63.71;100609.55;1782870;78;21052;-74
2021/03/24 05:12:17;;;;;;;6.50;3.90;;;;;;;-0.87;63.68;100616.30;1811771;78;21376;-75
2021/03/24 05:15:00;;;;;;;8.17;3.83;;;;;;;-0.84;63.75;100617.25;1819040;76;21251;-74
2021/03/24 05:17:34;;;;;;;6.90;3.80;;;;;;;-0.82;63.78;100623.95;1816425;76;21147;-75
2021/03/24 05:20:28;;;;;;;6.67;3.50;;;;;;;-0.83;63.67;100628.05;1814767;76;21196;-74
2021/03/24 05:22:56;;;;;;;7.10;3.70;;;;;;;-0.83;63.75;100632.79;1811044;77;21046;-75
2021/03/24 05:25:31;;;;;;;6.85;3.45;;;;;;;-0.82;63.79;100636.25;1792550;78;21392;-74
2021/03/24 05:28:13;;;;;;;5.75;3.40;;;;;;;-0.82;63.77;100641.50;1826801;78;21087;-74
2021/03/24 05:30:50;;;;;;;6.42;3.25;;;;;;;-0.82;63.87;100634.44;1815689;76;21080;-76
2021/03/24 05:33:28;;;;;;;6.33;3.25;;;;;;;-0.83;63.04;100633.30;1792187;77;21203;-74
2021/03/24 05:36:08;;;;;;;6.40;3.00;;;;;;;-0.80;62.81;100643.42;1826755;76;21205;-74
2021/03/24 05:38:43;;;;;;;7.08;3.72;;;;;;;-0.74;62.73;100644.83;1812646;78;21383;-74
2021/03/24 05:41:36;;;;;;;6.65;2.92;;;;;;;-0.65;62.46;100644.25;1821559;76;21189;-74
2021/03/24 05:44:38;;;;;;;5.60;2.77;;;;;;;-0.58;62.00;100641.72;1817318;77;21190;-75
2021/03/24 05:47:40;;;;;;;5.17;2.90;;;;;;;-0.54;61.57;100642.97;1788042;76;21190;-74
2021/03/24 05:50:38;;;;;;;7.78;3.47;;;;;;;-0.54;61.13;100648.22;1825162;77;21184;-74
2021/03/24 05:53:31;;;;;;;5.70;3.50;;;;;;;-0.51;61.37;100642.61;1707619;82;21392;-74
2021/03/24 05:56:51;;;;;;;7.30;3.60;;;;;;;-0.39;61.30;100639.84;1843885;75;22374;-74
2021/03/24 05:59:56;;;;;;;6.05;3.35;;;;;;;-0.38;61.16;100649.34;1828491;77;21177;-74
2021/03/24 06:03:01;;;;;;;5.58;3.33;;;;;;;-0.32;60.70;100654.37;1821791;77;21574;-75
2021/03/24 06:05:57;;;;;;;5.70;2.72;;;;;;;-0.27;60.51;100654.11;1823349;77;21667;-74
2021/03/24 06:09:00;;;;;;;8.55;3.90;;;;;;;-0.21;60.19;100657.02;1823339;77;21681;-75
2021/03/24 06:11:47;;;;;;;9.10;3.92;;;;;;;-0.21;59.91;100660.95;1829637;77;21225;-74
2021/03/24 06:14:54;;;;;;;5.90;3.70;;;;;;;-0.24;60.01;100664.24;1804461;77;21206;-75
2021/03/24 06:18:03;;;;;;;9.13;3.67;;;;;;;-0.20;59.94;100666.00;1789631;78;21388;-74
2021/03/24 06:21:04;;;;;;;7.03;3.83;;;;;;;-0.21;59.82;100672.26;1747941;80;21234;-74
2021/03/24 06:23:56;;;;;;;6.65;3.55;;;;;;;-0.18;59.89;100673.71;1832229;75;21300;-74
2021/03/24 06:26:50;;;;;;;5.92;3.30;;;;;;;-0.13;59.80;100680.52;1834446;77;21549;-73
2021/03/24 06:29:50;;;;;;;6.95;3.65;;;;;;;-0.08;59.59;100678.98;1848309;77;21219;-75
2021/03/24 06:32:55;;;;;;;6.30;3.87;;;;;;;-0.05;59.37;100692.25;1829822;75;22456;-74
2021/03/24 06:35:47;;;;;;;8.58;4.60;;;;;;;-0.04;59.40;100685.48;1817219;77;21179;-75
2021/03/24 06:38:33;;;;;;;9.43;4.62;;;;;;;0.01;59.37;100674.45;1793006;77;21171;-75
2021/03/24 06:41:50;;;;;;;8.73;5.03;;;;;;;0.08;59.50;100678.46;1815898;77;21130;-75
2021/03/24 06:44:32;;;;;;;7.75;4.33;;;;;;;0.15;59.39;100680.66;1714271;81;21251;-76
2021/03/24 06:47:15;;;;;;;6.90;4.03;;;;;;;0.25;59.04;100686.92;1805244;77;21434;-76
2021/03/24 06:50:13;;;;;;;8.48;4.75;;;;;;;0.31;58.80;100688.81;1814933;76;21617;-74
2021/03/24 06:53:05;;;;;;;8.68;4.67;;;;;;;0.32;58.83;100695.18;1816560;78;21150;-75
2021/03/24 06:56:19;;;;;;;6.25;3.80;;;;;;;0.40;58.88;100683.25;1808793;77;21199;-75
2021/03/24 06:59:34;;;;;;;7.33;4.05;;;;;;;0.48;58.50;100690.70;1811371;78;21146;-75
2021/03/24 07:02:21;;;;;;;7.33;4.50;;;;;;;0.56;58.62;100701.91;1810712;78;21645;-74
2021/03/24 07:05:21;;;;;;;7.42;4.28;;;;;;;0.64;58.30;100700.45;1829656;76;21170;-75
2021/03/24 07:08:19;;;;;;;8.33;4.25;;;;;;;0.68;57.96;100701.70;1817720;76;21127;-73
2021/03/24 07:11:14;;;;;;;8.43;4.42;;;;;;;0.72;58.17;100700.82;1817690;77;21701;-74
2021/03/24 07:13:59;;;;;;;7.33;4.12;;;;;;;0.74;57.67;100698.83;1818906;76;21205;-74
2021/03/24 07:16:54;;;;;;;8.13;4.22;;;;;;;0.73;57.98;100708.23;1739746;78;21392;-75
2021/03/24 07:20:11;;;;;;;7.62;4.70;;;;;;;0.82;57.84;100701.81;1705779;82;21242;-74
2021/03/24 07:23:18;;;;;;;7.72;4.70;;;;;;;0.90;58.03;100703.02;1849550;77;21042;-76
2021/03/24 07:26:19;;;;;;;7.05;3.85;;;;;;;0.98;57.57;100708.13;1810909;77;21195;-75
2021/03/24 07:29:14;;;;;;;7.60;4.17;;;;;;;0.98;57.37;100710.75;1840506;75;21218;-74
2021/03/24 07:32:00;;;;;;;7.20;4.30;;;;;;;0.94;57.63;100700.31;1837744;77;21344;-74
2021/03/24 07:34:59;;;;;;;7.10;4.45;;;;;;;0.95;57.74;100717.70;1835012;75;21188;-75
2021/03/24 07:38:10;;;;;;;6.78;3.98;;;;;;;1.02;57.87;100726.49;1751353;77;21285;-75
2021/03/24 07:41:07;;;;;;;8.25;4.62;;;;;;;1.16;58.00;100726.90;1869449;75;21233;-76
2021/03/24 07:44:12;;;;;;;7.12;4.42;;;;;;;1.23;57.10;100722.19;1816157;77;21653;-74
2021/03/24 07:46:58;;;;;;;7.67;4.15;;;;;;;1.27;57.33;100733.95;1837296;75;21377;-76
2021/03/24 07:50:05;;;;;;;9.18;4.70;;;;;;;1.41;57.16;100738.30;1841824;75;21134;-74
2021/03/24 07:53:04;;;;;;;7.35;3.95;;;;;;;1.49;56.95;100734.22;1835777;75;21161;-74
2021/03/24 07:55:51;;;;;;;6.95;4.53;;;;;;;1.55;56.70;100734.77;1832346;77;21202;-74
2021/03/24 07:59:00;;;;;;;7.40;4.65;;;;;;;1.69;56.74;100721.67;1836612;76;21167;-75
2021/03/24 08:02:16;;;;;;;7.40;4.70;;;;;;;1.86;56.29;100723.78;1826530;77;21354;-75
2021/03/24 08:05:28;;;;;;;6.85;4.33;;;;;;;2.05;55.90;100724.88;1840531;75;21129;-75
2021/03/24 08:08:29;;;;;;;7.20;4.35;;;;;;;2.17;55.08;100732.21;1808566;77;27145;-75
2021/03/24 08:11:24;;;;;;;6.60;4.00;;;;;;;2.15;55.04;100727.66;1830987;75;21177;-75
2021/03/24 08:14:26;;;;;;;8.53;4.80;;;;;;;2.16;54.64;100743.77;1829147;76;21130;-77
2021/03/24 08:17:06;;;;;;;8.60;5.12;;;;;;;2.10;54.81;100748.00;1822074;75;21621;-75
2021/03/24 08:19:49;;;;;;;9.50;4.45;;;;;;;2.05;55.33;100738.06;1834574;75;21192;-75
2021/03/24 08:22:51;;;;;;;8.75;4.80;;;;;;;2.13;55.45;100736.26;1845532;76;21148;-75
2021/03/24 08:25:53;;;;;;;8.50;4.78;;;;;;;2.29;55.15;100739.86;1832865;77;21134;-76
2021/03/24 08:28:57;;;;;;;11.28;5.53;;;;;;;2.42;55.05;100743.86;1841184;75;21061;-76
2021/03/24 08:32:05;;;;;;;7.65;4.70;;;;;;;2.61;55.16;100744.12;1812554;78;22336;-76
2021/03/24 08:35:32;;;;;;;8.93;5.37;;;;;;;2.86;54.53;100741.20;1837130;77;21642;-75
2021/03/24 08:38:24;;;;;;;10.25;5.33;;;;;;;2.99;54.22;100743.84;1807472;77;21173;-76
2021/03/24 08:41:11;;;;;;;9.03;5.15;;;;;;;3.19;54.45;100736.44;1811455;77;21247;-74
2021/03/24 08:44:03;;;;;;;8.08;4.90;;;;;;;3.35;53.76;100739.98;1766129;78;21175;-75
2021/03/24 08:46:48;;;;;;;8.45;5.67;;;;;;;3.46;53.34;100733.30;1812246;77;21198;-75
2021/03/24 08:49:27;;;;;;;12.15;5.37;;;;;;;3.48;53.38;100728.08;1802286;77;21127;-75
2021/03/24 08:52:26;;;;;;;10.60;6.08;;;;;;;3.49;53.27;100738.16;1806736;77;21226;-75
2021/03/24 08:55:03;;;;;;;10.63;5.37;;;;;;;3.42;53.42;100745.26;1804454;77;21183;-79
2021/03/24 08:58:07;;;;;;;9.00;5.30;;;;;;;3.34;53.81;100756.85;1841222;75;21208;-75
2021/03/24 09:01:16;;;;;;;7.70;5.08;;;;;;;3.31;53.77;100742.73;1827766;77;21479;-75
2021/03/24 09:04:04;;;;;;;7.85;5.28;;;;;;;3.31;54.29;100749.34;1845979;75;21133;-75
2021/03/24 09:06:59;;;;;;;8.68;5.60;;;;;;;3.38;54.19;100732.98;1822542;77;21164;-74
2021/03/24 09:09:42;;;;;;;10.28;6.25;;;;;;;3.44;54.20;100744.05;1815744;78;21167;-75
2021/03/24 09:12:30;;;;;;;8.10;5.40;;;;;;;3.48;54.03;100738.64;1800647;77;21146;-76
2021/03/24 09:15:38;;;;;;;11.45;6.75;;;;;;;3.50;54.16;100731.86;1831548;75;22445;-75
2021/03/24 09:18:33;;;;;;;8.40;6.12;;;;;;;3.51;54.13;100734.28;1797383;77;21179;-74
2021/03/24 09:21:22;;;;;;;8.90;5.75;;;;;;;3.52;54.33;100733.28;1687751;83;21664;-76
2021/03/24 09:24:47;;;;;;;11.40;5.80;;;;;;;3.73;54.29;100732.72;1802818;79;23403;-76
2021/03/24 09:27:35;;;;;;;9.20;5.53;;;;;;;3.78;54.11;100722.33;1759971;80;21169;-75
2021/03/24 09:30:23;;;;;;;8.80;5.95;;;;;;;3.90;53.83;100736.52;1772064;80;21215;-76
2021/03/24 09:33:07;;;;;;;9.60;6.70;;;;;;;4.02;53.74;100732.73;1779813;79;21269;-74
2021/03/24 09:36:07;;;;;;;9.63;5.90;;;;;;;4.14;52.99;100722.30;1788005;80;21097;-74
2021/03/24 09:38:38;;;;;;;11.22;6.58;;;;;;;4.17;52.74;100711.31;1800264;78;21156;-75
2021/03/24 09:41:25;;;;;;;7.78;5.37;;;;;;;4.22;52.98;100718.11;1812092;78;21108;-75
2021/03/24 09:44:02;;;;;;;10.13;6.37;;;;;;;4.34;52.60;100725.66;1781499;80;21437;-76
2021/03/24 09:46:39;;;;;;;9.73;6.10;;;;;;;4.41;52.03;100726.97;1777768;80;21133;-76
2021/03/24 09:49:31;;;;;;;8.28;5.95;;;;;;;4.46;52.09;100718.68;1775974;79;21181;-75
2021/03/24 09:52:52;;;;;;;9.43;6.08;;;;;;;4.59;51.36;100739.47;1769656;80;21170;-74
2021/03/24 09:55:33;;;;;;;7.83;5.20;;;;;;;4.55;50.92;100730.34;1772756;80;21172;-76
2021/03/24 09:58:28;;;;;;;9.55;6.03;;;;;;;4.54;51.33;100731.34;1772955;80;22286;-75
2021/03/24 10:01:10;;;;;;;9.18;5.75;;;;;;;4.68;50.52;100715.20;1801050;79;21188;-75
2021/03/24 10:04:29;;;;;;;8.70;5.67;;;;;;;4.81;50.23;100738.11;1774228;80;21180;-75
2021/03/24 10:07:15;;;;;;;9.45;5.92;;;;;;;4.88;49.58;100722.19;1740692;80;21553;-74
2021/03/24 10:10:15;;;;;;;7.80;5.17;;;;;;;4.98;49.91;100718.54;1734812;80;21678;-74
2021/03/24 10:13:26;;;;;;;9.43;5.95;;;;;;;5.15;48.88;100720.94;1739038;80;21648;-75
2021/03/24 10:16:12;;;;;;;8.80;6.00;;;;;;;5.09;48.95;100732.39;1729071;80;21129;-74
2021/03/24 10:19:17;;;;;;;8.03;5.40;;;;;;;4.96;48.39;100729.04;1734809;80;21206;-76
2021/03/24 10:21:49;;;;;;;7.78;5.53;;;;;;;4.89;48.62;100715.86;1742117;80;21136;-74
2021/03/24 10:24:28;;;;;;;7.35;4.85;;;;;;;4.89;48.35;100723.28;1735554;80;21183;-76
2021/03/24 10:27:03;;;;;;;7.58;4.78;;;;;;;4.96;47.75;100712.64;1728862;80;21372;-74
2021/03/24 10:29:40;;;;;;;8.43;5.62;;;;;;;5.07;47.80;100713.80;1724169;80;21200;-75
2021/03/24 10:32:32;;;;;;;7.12;4.90;;;;;;;5.25;47.91;100728.39;1752633;80;21201;-74
2021/03/24 10:35:32;;;;;;;6.95;4.95;;;;;;;5.44;46.64;100712.02;1736994;80;21673;-75
2021/03/24 10:38:26;;;;;;;8.28;5.55;;;;;;;5.40;45.52;100740.79;1732942;80;21192;-73
2021/03/24 10:41:13;;;;;;;8.60;4.85;;;;;;;5.24;46.08;100740.02;1741645;80;22326;-74
2021/03/24 10:43:53;;;;;;;7.30;4.90;;;;;;;5.09;45.81;100739.52;1740869;80;21206;-75
2021/03/24 10:46:41;;;;;;;6.10;4.58;;;;;;;5.04;46.11;100723.49;1737985;80;21186;-75
2021/03/24 10:49:37;;;;;;;6.45;4.47;;;;;;;5.13;45.86;100730.95;1740856;80;21231;-74
2021/03/24 10:52:21;;;;;;;6.37;4.47;;;;;;;5.25;45.41;100720.45;1704181;82;21163;-81
2021/03/24 10:55:02;;;;;;;7.78;5.12;;;;;;;5.38;46.37;100722.16;1708442;82;21231;-75
2021/03/24 10:58:13;;;;;;;6.67;4.55;;;;;;;5.61;45.74;100715.71;1698678;82;21199;-76
2021/03/24 11:00:47;;;;;;;6.87;4.17;;;;;;;5.76;44.91;100719.34;1693185;82;21196;-77
2021/03/24 11:03:31;;;;;;;6.62;4.33;;;;;;;5.78;43.83;100729.19;1721449;82;21643;-76
2021/03/24 11:06:14;;;;;;;7.05;4.33;;;;;;;5.60;44.54;100722.56;1727795;82;21187;-75
2021/03/24 11:08:55;;;;;;;5.53;3.62;;;;;;;5.45;44.78;100728.72;1717192;82;22360;-81
2021/03/24 11:11:37;;;;;;;6.97;3.77;;;;;;;5.40;43.32;100716.95;1696449;82;21219;-80
2021/03/24 11:14:24;;;;;;;6.58;4.03;;;;;;;5.38;43.86;100708.92;1694316;82;21192;-79
2021/03/24 11:17:13;;;;;;;7.17;4.37;;;;;;;5.20;44.24;100721.63;1672817;83;21216;-79
2021/03/24 11:19:47;;;;;;;6.25;3.67;;;;;;;5.19;44.91;100718.66;1678702;83;21202;-79
2021/03/24 11:22:40;;;;;;;5.92;3.40;;;;;;;5.28;44.84;100710.74;1747729;79;21155;-77
2021/03/24 11:25:28;;;;;;;5.37;3.60;;;;;;;5.31;44.12;100726.20;1733557;80;21112;-76
2021/03/24 11:28:33;;;;;;;5.95;3.50;;;;;;;5.26;44.33;100711.46;1751363;79;21694;-78
2021/03/24 11:33:51;;;;;;;5.57;3.50;;;;;;;5.19;43.93;100723.95;1901902;72;22654;-75
2021/03/24 11:36:25;;;;;;;5.78;3.58;;;;;;;5.10;44.20;100725.25;1866391;75;21176;-75
2021/03/24 11:39:20;;;;;;;6.25;4.10;;;;;;;5.15;43.26;100729.40;1868260;74;21197;-75
2021/03/24 11:41:50;;;;;;;6.72;4.10;;;;;;;5.25;43.86;100725.74;1868446;74;21217;-75
2021/03/24 11:44:21;;;;;;;6.55;4.03;;;;;;;5.48;43.74;100721.14;1873093;74;21141;-75
2021/03/24 11:47:02;;;;;;;5.70;3.27;;;;;;;5.60;43.62;100727.88;1873977;75;21191;-76
2021/03/24 11:49:48;;;;;;;6.10;4.17;;;;;;;5.61;42.38;100727.63;1881557;74;21300;-76
2021/03/24 11:52:50;;;;;;;6.58;3.92;;;;;;;5.58;41.67;100723.29;1874199;75;21399;-74
2021/03/24 11:55:49;;;;;;;6.35;3.40;;;;;;;5.54;42.60;100716.82;1882625;74;21193;-74
2021/03/24 11:58:44;;;;;;;5.53;3.20;;;;;;;5.63;42.31;100704.91;1861092;75;21477;-74
2021/03/24 12:01:44;;;;;;;6.75;3.30;;;;;;;5.73;41.57;100707.05;1891979;75;21303;-74
2021/03/24 12:04:37;;;;;;;5.20;3.15;;;;;;;5.79;41.27;100705.64;1878006;75;21116;-75
2021/03/24 12:07:46;;;;;;;4.75;2.92;;;;;;;5.81;41.59;100712.03;1872477;75;26861;-76
2021/03/24 12:10:28;;;;;;;4.65;2.70;;;;;;;5.81;41.12;100712.84;1859356;77;21096;-74
2021/03/24 12:13:19;;;;;;;5.80;3.40;;;;;;;5.83;41.28;100706.02;1824833;76;23334;-76
2021/03/24 12:16:06;;;;;;;5.25;3.10;;;;;;;5.82;42.33;100706.53;1817807;78;21139;-76
2021/03/24 12:18:45;;;;;;;5.10;2.85;;;;;;;5.90;42.02;100701.44;1807426;78;21451;-75
2021/03/24 12:21:33;;;;;;;5.45;2.90;;;;;;;5.91;41.02;100703.56;1802002;79;21159;-74
2021/03/24 12:24:31;;;;;;;5.20;2.80;;;;;;;5.88;40.48;100706.14;1809919;79;21017;-74
2021/03/24 12:27:18;;;;;;;5.30;3.08;;;;;;;5.86;40.27;100696.29;1800684;79;21151;-76
2021/03/24 12:29:59;;;;;;;4.67;2.98;;;;;;;5.95;40.84;100706.09;1787701;78;21468;-75
2021/03/24 12:32:29;;;;;;;6.03;3.10;;;;;;;6.03;40.35;100698.66;1801253;78;21426;-74
2021/03/24 12:34:58;;;;;;;4.33;2.72;;;;;;;6.02;39.56;100691.73;1807525;79;21227;-76
2021/03/24 12:37:41;;;;;;;3.98;2.33;;;;;;;6.00;40.10;100701.75;1802259;78;21686;-76
2021/03/24 12:40:18;;;;;;;5.65;3.10;;;;;;;6.04;39.90;100696.80;1805195;79;21198;-76
2021/03/24 12:42:48;;;;;;;5.03;2.50;;;;;;;6.07;39.86;100699.81;1800924;79;21174;-75
2021/03/24 12:45:40;;;;;;;4.45;2.30;;;;;;;6.08;40.18;100686.84;1759236;79;21873;-74
2021/03/24 12:48:16;;;;;;;3.90;2.25;;;;;;;6.03;39.37;100684.06;1814426;77;21230;-75
2021/03/24 12:51:14;;;;;;;5.08;2.15;;;;;;;5.96;39.82;100698.45;1792125;79;21163;-77